sensor_id;sensor_type;location;lat;lon;timestamp;P1;durP1;ratioP1;P2;durP2;ratioP2
49458;SDS011;35354;51.296;16.924;2023-07-20T00:01:28;6.10;;;3.42;;
49458;SDS011;35354;51.296;16.924;2023-07-20T00:03:53;3.10;;;2.60;;
49458;SDS011;35354;51.296;16.924;2023-07-20T00:06:22;4.20;;;2.65;;
49458;SDS011;35354;51.296;16.924;2023-07-20T00:08:49;4.88;;;2.75;;
49458;SDS011;35354;51.296;16.924;2023-07-20T00:11:15;5.10;;;3.03;;
49458;SDS011;35354;51.296;16.924;2023-07-20T00:13:40;3.55;;;2.50;;
49458;SDS011;35354;51.296;16.924;2023-07-20T00:16:06;3.42;;;2.28;;
49458;SDS011;35354;51.296;16.924;2023-07-20T00:18:31;4.63;;;2.75;;
49458;SDS011;35354;51.296;16.924;2023-07-20T00:20:57;4.60;;;3.17;;
49458;SDS011;35354;51.296;16.924;2023-07-20T00:23:23;3.30;;;2.67;;
49458;SDS011;35354;51.296;16.924;2023-07-20T00:25:49;4.38;;;2.50;;
49458;SDS011;35354;51.296;16.924;2023-07-20T00:28:14;3.28;;;2.83;;
49458;SDS011;35354;51.296;16.924;2023-07-20T00:30:40;4.68;;;2.80;;
49458;SDS011;35354;51.296;16.924;2023-07-20T00:33:06;4.45;;;2.42;;
49458;SDS011;35354;51.296;16.924;2023-07-20T00:35:35;3.13;;;2.80;;
49458;SDS011;35354;51.296;16.924;2023-07-20T00:38:00;5.07;;;2.70;;
49458;SDS011;35354;51.296;16.924;2023-07-20T00:40:26;3.35;;;3.00;;
49458;SDS011;35354;51.296;16.924;2023-07-20T00:42:51;5.63;;;3.35;;
49458;SDS011;35354;51.296;16.924;2023-07-20T00:45:17;5.13;;;3.13;;
49458;SDS011;35354;51.296;16.924;2023-07-20T00:47:42;3.60;;;2.95;;
49458;SDS011;35354;51.296;16.924;2023-07-20T00:50:09;4.63;;;3.17;;
49458;SDS011;35354;51.296;16.924;2023-07-20T00:52:35;5.30;;;3.15;;
49458;SDS011;35354;51.296;16.924;2023-07-20T00:55:04;4.15;;;3.00;;
49458;SDS011;35354;51.296;16.924;2023-07-20T00:57:30;4.32;;;2.90;;
49458;SDS011;35354;51.296;16.924;2023-07-20T00:59:55;5.22;;;3.13;;
49458;SDS011;35354;51.296;16.924;2023-07-20T01:02:21;3.70;;;2.95;;
49458;SDS011;35354;51.296;16.924;2023-07-20T01:04:46;5.95;;;3.30;;
49458;SDS011;35354;51.296;16.924;2023-07-20T01:07:17;4.07;;;3.05;;
49458;SDS011;35354;51.296;16.924;2023-07-20T01:12:13;5.13;;;3.10;;
49458;SDS011;35354;51.296;16.924;2023-07-20T01:14:48;3.90;;;3.03;;
49458;SDS011;35354;51.296;16.924;2023-07-20T01:17:14;3.30;;;3.00;;
49458;SDS011;35354;51.296;16.924;2023-07-20T01:19:39;4.15;;;3.10;;
49458;SDS011;35354;51.296;16.924;2023-07-20T01:25:07;7.38;;;3.92;;
49458;SDS011;35354;51.296;16.924;2023-07-20T01:32:57;3.60;;;3.28;;
49458;SDS011;35354;51.296;16.924;2023-07-20T01:35:25;5.40;;;3.17;;
49458;SDS011;35354;51.296;16.924;2023-07-20T01:37:54;4.88;;;3.17;;
49458;SDS011;35354;51.296;16.924;2023-07-20T01:40:20;4.88;;;3.00;;
49458;SDS011;35354;51.296;16.924;2023-07-20T01:42:47;6.03;;;3.40;;
49458;SDS011;35354;51.296;16.924;2023-07-20T01:45:13;6.38;;;3.22;;
49458;SDS011;35354;51.296;16.924;2023-07-20T01:47:39;4.05;;;3.28;;
49458;SDS011;35354;51.296;16.924;2023-07-20T01:50:05;4.35;;;2.83;;
49458;SDS011;35354;51.296;16.924;2023-07-20T01:52:31;5.10;;;3.13;;
49458;SDS011;35354;51.296;16.924;2023-07-20T01:54:56;5.00;;;3.35;;
49458;SDS011;35354;51.296;16.924;2023-07-20T01:57:22;4.30;;;3.22;;
49458;SDS011;35354;51.296;16.924;2023-07-20T01:59:47;4.28;;;3.08;;
49458;SDS011;35354;51.296;16.924;2023-07-20T02:02:12;5.38;;;3.72;;
49458;SDS011;35354;51.296;16.924;2023-07-20T02:04:38;4.72;;;3.42;;
49458;SDS011;35354;51.296;16.924;2023-07-20T02:07:03;4.75;;;3.65;;
49458;SDS011;35354;51.296;16.924;2023-07-20T02:09:29;6.03;;;3.33;;
49458;SDS011;35354;51.296;16.924;2023-07-20T02:11:54;5.18;;;3.33;;
49458;SDS011;35354;51.296;16.924;2023-07-20T02:14:20;4.20;;;3.47;;
49458;SDS011;35354;51.296;16.924;2023-07-20T02:16:47;5.45;;;3.60;;
49458;SDS011;35354;51.296;16.924;2023-07-20T02:19:16;5.88;;;3.25;;
49458;SDS011;35354;51.296;16.924;2023-07-20T02:21:42;5.93;;;3.45;;
49458;SDS011;35354;51.296;16.924;2023-07-20T02:24:07;4.18;;;3.38;;
49458;SDS011;35354;51.296;16.924;2023-07-20T02:26:33;5.38;;;4.00;;
49458;SDS011;35354;51.296;16.924;2023-07-20T02:28:58;4.35;;;3.42;;
49458;SDS011;35354;51.296;16.924;2023-07-20T02:31:23;5.70;;;3.67;;
49458;SDS011;35354;51.296;16.924;2023-07-20T02:33:49;4.15;;;3.47;;
49458;SDS011;35354;51.296;16.924;2023-07-20T02:36:14;4.22;;;3.75;;
49458;SDS011;35354;51.296;16.924;2023-07-20T02:38:41;4.97;;;3.72;;
49458;SDS011;35354;51.296;16.924;2023-07-20T02:41:07;6.50;;;3.70;;
49458;SDS011;35354;51.296;16.924;2023-07-20T02:43:32;8.68;;;4.43;;
49458;SDS011;35354;51.296;16.924;2023-07-20T02:45:57;4.70;;;3.10;;
49458;SDS011;35354;51.296;16.924;2023-07-20T02:48:23;5.13;;;4.18;;
49458;SDS011;35354;51.296;16.924;2023-07-20T02:50:48;5.68;;;3.70;;
49458;SDS011;35354;51.296;16.924;2023-07-20T02:53:13;6.03;;;3.83;;
49458;SDS011;35354;51.296;16.924;2023-07-20T02:55:39;4.80;;;3.70;;
49458;SDS011;35354;51.296;16.924;2023-07-20T02:58:04;6.82;;;4.18;;
49458;SDS011;35354;51.296;16.924;2023-07-20T03:00:29;7.30;;;4.13;;
49458;SDS011;35354;51.296;16.924;2023-07-20T03:02:55;5.60;;;4.03;;
49458;SDS011;35354;51.296;16.924;2023-07-20T03:05:21;4.63;;;3.60;;
49458;SDS011;35354;51.296;16.924;2023-07-20T03:07:50;4.35;;;3.60;;
49458;SDS011;35354;51.296;16.924;2023-07-20T03:10:16;5.15;;;3.70;;
49458;SDS011;35354;51.296;16.924;2023-07-20T03:12:41;5.55;;;3.65;;
49458;SDS011;35354;51.296;16.924;2023-07-20T03:15:07;5.35;;;3.90;;
49458;SDS011;35354;51.296;16.924;2023-07-20T03:17:33;5.53;;;3.63;;
49458;SDS011;35354;51.296;16.924;2023-07-20T03:19:58;5.85;;;4.28;;
49458;SDS011;35354;51.296;16.924;2023-07-20T03:22:24;5.20;;;3.80;;
49458;SDS011;35354;51.296;16.924;2023-07-20T03:24:50;6.88;;;4.15;;
49458;SDS011;35354;51.296;16.924;2023-07-20T03:27:16;5.40;;;3.83;;
49458;SDS011;35354;51.296;16.924;2023-07-20T03:29:41;4.47;;;3.83;;
49458;SDS011;35354;51.296;16.924;2023-07-20T03:32:07;6.28;;;4.20;;
49458;SDS011;35354;51.296;16.924;2023-07-20T03:34:32;6.07;;;3.90;;
49458;SDS011;35354;51.296;16.924;2023-07-20T03:36:58;4.88;;;4.03;;
49458;SDS011;35354;51.296;16.924;2023-07-20T03:39:24;4.28;;;3.80;;
49458;SDS011;35354;51.296;16.924;2023-07-20T03:41:49;4.82;;;3.47;;
49458;SDS011;35354;51.296;16.924;2023-07-20T03:44:15;5.18;;;4.35;;
49458;SDS011;35354;51.296;16.924;2023-07-20T03:46:40;8.10;;;4.53;;
49458;SDS011;35354;51.296;16.924;2023-07-20T03:49:05;4.68;;;3.80;;
49458;SDS011;35354;51.296;16.924;2023-07-20T03:51:31;6.05;;;3.83;;
49458;SDS011;35354;51.296;16.924;2023-07-20T03:53:57;6.00;;;4.30;;
49458;SDS011;35354;51.296;16.924;2023-07-20T03:56:22;4.95;;;3.85;;
49458;SDS011;35354;51.296;16.924;2023-07-20T03:58:49;6.38;;;4.50;;
49458;SDS011;35354;51.296;16.924;2023-07-20T04:01:14;4.30;;;3.90;;
49458;SDS011;35354;51.296;16.924;2023-07-20T04:03:41;5.35;;;4.18;;
49458;SDS011;35354;51.296;16.924;2023-07-20T04:06:07;5.70;;;4.30;;
49458;SDS011;35354;51.296;16.924;2023-07-20T04:08:33;5.07;;;4.45;;
49458;SDS011;35354;51.296;16.924;2023-07-20T04:11:00;5.63;;;3.88;;
49458;SDS011;35354;51.296;16.924;2023-07-20T04:13:26;5.50;;;4.55;;
49458;SDS011;35354;51.296;16.924;2023-07-20T04:15:52;5.63;;;4.10;;
49458;SDS011;35354;51.296;16.924;2023-07-20T04:18:18;5.72;;;4.28;;
49458;SDS011;35354;51.296;16.924;2023-07-20T04:20:43;4.32;;;3.92;;
49458;SDS011;35354;51.296;16.924;2023-07-20T04:23:08;4.97;;;4.10;;
49458;SDS011;35354;51.296;16.924;2023-07-20T04:25:34;6.43;;;4.80;;
49458;SDS011;35354;51.296;16.924;2023-07-20T04:28:04;6.20;;;4.90;;
49458;SDS011;35354;51.296;16.924;2023-07-20T04:30:33;4.93;;;4.43;;
49458;SDS011;35354;51.296;16.924;2023-07-20T04:33:00;5.65;;;4.15;;
49458;SDS011;35354;51.296;16.924;2023-07-20T04:38:09;6.38;;;4.80;;
49458;SDS011;35354;51.296;16.924;2023-07-20T04:40:34;5.97;;;4.32;;
49458;SDS011;35354;51.296;16.924;2023-07-20T04:43:00;7.25;;;4.80;;
49458;SDS011;35354;51.296;16.924;2023-07-20T04:45:25;6.78;;;4.95;;
49458;SDS011;35354;51.296;16.924;2023-07-20T04:47:50;6.72;;;4.90;;
49458;SDS011;35354;51.296;16.924;2023-07-20T04:50:16;5.20;;;4.65;;
49458;SDS011;35354;51.296;16.924;2023-07-20T04:52:41;5.40;;;4.63;;
49458;SDS011;35354;51.296;16.924;2023-07-20T04:55:06;6.57;;;5.07;;
49458;SDS011;35354;51.296;16.924;2023-07-20T04:57:32;5.07;;;4.57;;
49458;SDS011;35354;51.296;16.924;2023-07-20T04:59:58;5.75;;;5.15;;
49458;SDS011;35354;51.296;16.924;2023-07-20T05:02:23;6.78;;;4.90;;
49458;SDS011;35354;51.296;16.924;2023-07-20T05:04:49;9.60;;;5.55;;
49458;SDS011;35354;51.296;16.924;2023-07-20T05:07:14;6.05;;;4.65;;
49458;SDS011;35354;51.296;16.924;2023-07-20T05:09:39;6.60;;;4.82;;
49458;SDS011;35354;51.296;16.924;2023-07-20T05:12:05;7.25;;;5.68;;
49458;SDS011;35354;51.296;16.924;2023-07-20T05:14:31;6.85;;;5.40;;
49458;SDS011;35354;51.296;16.924;2023-07-20T05:16:56;7.15;;;4.97;;
49458;SDS011;35354;51.296;16.924;2023-07-20T05:19:21;7.63;;;5.15;;
49458;SDS011;35354;51.296;16.924;2023-07-20T05:21:47;7.15;;;4.32;;
49458;SDS011;35354;51.296;16.924;2023-07-20T05:24:12;6.03;;;5.38;;
49458;SDS011;35354;51.296;16.924;2023-07-20T05:26:37;6.43;;;4.97;;
49458;SDS011;35354;51.296;16.924;2023-07-20T05:29:03;4.78;;;4.35;;
49458;SDS011;35354;51.296;16.924;2023-07-20T05:31:28;7.82;;;4.75;;
49458;SDS011;35354;51.296;16.924;2023-07-20T05:33:55;6.97;;;4.68;;
49458;SDS011;35354;51.296;16.924;2023-07-20T05:36:20;6.85;;;5.15;;
49458;SDS011;35354;51.296;16.924;2023-07-20T05:38:46;7.65;;;5.13;;
49458;SDS011;35354;51.296;16.924;2023-07-20T05:41:11;6.68;;;5.10;;
49458;SDS011;35354;51.296;16.924;2023-07-20T05:43:36;5.53;;;4.90;;
49458;SDS011;35354;51.296;16.924;2023-07-20T05:46:02;7.18;;;5.18;;
49458;SDS011;35354;51.296;16.924;2023-07-20T05:48:27;5.82;;;4.95;;
49458;SDS011;35354;51.296;16.924;2023-07-20T05:50:52;5.07;;;4.60;;
49458;SDS011;35354;51.296;16.924;2023-07-20T05:53:18;8.60;;;5.25;;
49458;SDS011;35354;51.296;16.924;2023-07-20T05:55:44;9.43;;;5.65;;
49458;SDS011;35354;51.296;16.924;2023-07-20T05:58:09;9.48;;;5.80;;
49458;SDS011;35354;51.296;16.924;2023-07-20T06:00:34;7.03;;;5.22;;
49458;SDS011;35354;51.296;16.924;2023-07-20T06:03:00;7.55;;;5.47;;
49458;SDS011;35354;51.296;16.924;2023-07-20T06:05:25;8.43;;;5.20;;
49458;SDS011;35354;51.296;16.924;2023-07-20T06:07:50;8.00;;;5.53;;
49458;SDS011;35354;51.296;16.924;2023-07-20T06:10:16;5.00;;;4.50;;
49458;SDS011;35354;51.296;16.924;2023-07-20T06:12:41;5.55;;;4.95;;
49458;SDS011;35354;51.296;16.924;2023-07-20T06:15:12;5.80;;;4.43;;
49458;SDS011;35354;51.296;16.924;2023-07-20T06:17:50;5.20;;;4.55;;
49458;SDS011;35354;51.296;16.924;2023-07-20T06:20:15;5.72;;;4.45;;
49458;SDS011;35354;51.296;16.924;2023-07-20T06:22:40;6.30;;;5.35;;
49458;SDS011;35354;51.296;16.924;2023-07-20T06:25:06;5.47;;;4.18;;
49458;SDS011;35354;51.296;16.924;2023-07-20T06:27:31;6.30;;;4.63;;
49458;SDS011;35354;51.296;16.924;2023-07-20T06:29:57;8.05;;;4.63;;
49458;SDS011;35354;51.296;16.924;2023-07-20T06:32:22;5.85;;;4.90;;
49458;SDS011;35354;51.296;16.924;2023-07-20T06:34:47;4.60;;;4.20;;
49458;SDS011;35354;51.296;16.924;2023-07-20T06:37:13;5.35;;;4.65;;
49458;SDS011;35354;51.296;16.924;2023-07-20T06:39:38;5.05;;;4.05;;
49458;SDS011;35354;51.296;16.924;2023-07-20T06:42:03;7.45;;;4.65;;
49458;SDS011;35354;51.296;16.924;2023-07-20T06:44:29;6.00;;;4.47;;
49458;SDS011;35354;51.296;16.924;2023-07-20T06:46:54;6.63;;;4.60;;
49458;SDS011;35354;51.296;16.924;2023-07-20T06:49:26;6.00;;;4.68;;
49458;SDS011;35354;51.296;16.924;2023-07-20T06:51:52;7.22;;;4.60;;
49458;SDS011;35354;51.296;16.924;2023-07-20T06:54:18;7.80;;;5.43;;
49458;SDS011;35354;51.296;16.924;2023-07-20T06:56:43;6.22;;;4.57;;
49458;SDS011;35354;51.296;16.924;2023-07-20T06:59:08;4.30;;;3.88;;
49458;SDS011;35354;51.296;16.924;2023-07-20T07:01:34;7.20;;;5.15;;
49458;SDS011;35354;51.296;16.924;2023-07-20T07:03:59;7.57;;;4.60;;
49458;SDS011;35354;51.296;16.924;2023-07-20T07:06:24;7.07;;;4.57;;
49458;SDS011;35354;51.296;16.924;2023-07-20T07:08:50;5.25;;;4.35;;
49458;SDS011;35354;51.296;16.924;2023-07-20T07:11:15;6.20;;;4.07;;
49458;SDS011;35354;51.296;16.924;2023-07-20T07:13:40;6.57;;;4.53;;
49458;SDS011;35354;51.296;16.924;2023-07-20T07:16:06;4.60;;;4.20;;
49458;SDS011;35354;51.296;16.924;2023-07-20T07:18:31;10.07;;;4.25;;
49458;SDS011;35354;51.296;16.924;2023-07-20T07:20:56;6.00;;;4.25;;
49458;SDS011;35354;51.296;16.924;2023-07-20T07:23:22;5.47;;;4.00;;
49458;SDS011;35354;51.296;16.924;2023-07-20T07:25:47;4.72;;;4.22;;
49458;SDS011;35354;51.296;16.924;2023-07-20T07:28:13;6.57;;;5.97;;
49458;SDS011;35354;51.296;16.924;2023-07-20T07:30:38;8.50;;;5.72;;
49458;SDS011;35354;51.296;16.924;2023-07-20T07:33:04;4.63;;;4.15;;
49458;SDS011;35354;51.296;16.924;2023-07-20T07:35:29;5.57;;;4.32;;
49458;SDS011;35354;51.296;16.924;2023-07-20T07:37:54;5.68;;;4.15;;
49458;SDS011;35354;51.296;16.924;2023-07-20T07:40:20;6.35;;;4.20;;
49458;SDS011;35354;51.296;16.924;2023-07-20T07:42:45;5.43;;;4.10;;
49458;SDS011;35354;51.296;16.924;2023-07-20T07:45:10;5.13;;;4.25;;
49458;SDS011;35354;51.296;16.924;2023-07-20T07:47:36;4.63;;;3.92;;
49458;SDS011;35354;51.296;16.924;2023-07-20T07:50:02;4.20;;;3.80;;
49458;SDS011;35354;51.296;16.924;2023-07-20T07:52:27;4.05;;;3.65;;
49458;SDS011;35354;51.296;16.924;2023-07-20T07:54:53;4.10;;;3.70;;
49458;SDS011;35354;51.296;16.924;2023-07-20T07:57:18;4.88;;;3.78;;
49458;SDS011;35354;51.296;16.924;2023-07-20T07:59:43;4.18;;;3.78;;
49458;SDS011;35354;51.296;16.924;2023-07-20T08:02:09;5.38;;;3.90;;
49458;SDS011;35354;51.296;16.924;2023-07-20T08:04:35;4.10;;;3.70;;
49458;SDS011;35354;51.296;16.924;2023-07-20T08:07:00;5.53;;;4.18;;
49458;SDS011;35354;51.296;16.924;2023-07-20T08:09:27;3.90;;;3.38;;
49458;SDS011;35354;51.296;16.924;2023-07-20T08:11:53;3.67;;;3.38;;
49458;SDS011;35354;51.296;16.924;2023-07-20T08:14:18;3.00;;;2.70;;
49458;SDS011;35354;51.296;16.924;2023-07-20T08:16:44;4.82;;;3.17;;
49458;SDS011;35354;51.296;16.924;2023-07-20T08:19:10;4.47;;;2.90;;
49458;SDS011;35354;51.296;16.924;2023-07-20T08:21:36;3.15;;;2.85;;
49458;SDS011;35354;51.296;16.924;2023-07-20T08:24:01;3.38;;;3.08;;
49458;SDS011;35354;51.296;16.924;2023-07-20T08:26:26;2.92;;;2.60;;
49458;SDS011;35354;51.296;16.924;2023-07-20T08:28:52;3.13;;;2.55;;
49458;SDS011;35354;51.296;16.924;2023-07-20T08:31:17;2.70;;;2.50;;
49458;SDS011;35354;51.296;16.924;2023-07-20T08:33:43;3.60;;;2.50;;
49458;SDS011;35354;51.296;16.924;2023-07-20T08:36:08;2.72;;;2.45;;
49458;SDS011;35354;51.296;16.924;2023-07-20T08:38:34;2.75;;;2.50;;
49458;SDS011;35354;51.296;16.924;2023-07-20T08:40:59;3.05;;;2.60;;
49458;SDS011;35354;51.296;16.924;2023-07-20T08:43:26;3.17;;;2.38;;
49458;SDS011;35354;51.296;16.924;2023-07-20T08:45:54;3.05;;;2.72;;
49458;SDS011;35354;51.296;16.924;2023-07-20T08:48:20;2.60;;;2.28;;
49458;SDS011;35354;51.296;16.924;2023-07-20T08:50:47;2.72;;;2.47;;
49458;SDS011;35354;51.296;16.924;2023-07-20T08:53:17;3.40;;;2.72;;
49458;SDS011;35354;51.296;16.924;2023-07-20T08:55:45;2.95;;;2.63;;
49458;SDS011;35354;51.296;16.924;2023-07-20T08:58:15;3.13;;;2.67;;
49458;SDS011;35354;51.296;16.924;2023-07-20T09:00:40;2.90;;;2.58;;
49458;SDS011;35354;51.296;16.924;2023-07-20T09:03:06;3.25;;;2.95;;
49458;SDS011;35354;51.296;16.924;2023-07-20T09:05:33;3.35;;;2.85;;
49458;SDS011;35354;51.296;16.924;2023-07-20T09:08:00;3.15;;;2.70;;
49458;SDS011;35354;51.296;16.924;2023-07-20T09:10:26;2.92;;;2.67;;
49458;SDS011;35354;51.296;16.924;2023-07-20T09:12:51;2.55;;;2.25;;
49458;SDS011;35354;51.296;16.924;2023-07-20T09:15:16;2.53;;;1.88;;
49458;SDS011;35354;51.296;16.924;2023-07-20T09:17:46;3.08;;;2.80;;
49458;SDS011;35354;51.296;16.924;2023-07-20T09:20:12;2.33;;;2.13;;
49458;SDS011;35354;51.296;16.924;2023-07-20T09:22:39;2.42;;;2.10;;
49458;SDS011;35354;51.296;16.924;2023-07-20T09:25:05;3.85;;;2.30;;
49458;SDS011;35354;51.296;16.924;2023-07-20T09:27:39;2.28;;;2.05;;
49458;SDS011;35354;51.296;16.924;2023-07-20T09:30:09;2.03;;;1.92;;
49458;SDS011;35354;51.296;16.924;2023-07-20T09:32:38;2.10;;;1.90;;
49458;SDS011;35354;51.296;16.924;2023-07-20T09:35:05;2.65;;;1.80;;
49458;SDS011;35354;51.296;16.924;2023-07-20T09:37:32;2.00;;;1.75;;
49458;SDS011;35354;51.296;16.924;2023-07-20T09:39:58;1.95;;;1.63;;
49458;SDS011;35354;51.296;16.924;2023-07-20T09:42:24;2.78;;;2.05;;
49458;SDS011;35354;51.296;16.924;2023-07-20T09:44:51;1.98;;;1.50;;
49458;SDS011;35354;51.296;16.924;2023-07-20T09:47:24;2.05;;;1.52;;
49458;SDS011;35354;51.296;16.924;2023-07-20T09:49:49;1.70;;;1.60;;
49458;SDS011;35354;51.296;16.924;2023-07-20T09:52:20;2.45;;;1.65;;
49458;SDS011;35354;51.296;16.924;2023-07-20T09:54:46;1.85;;;1.73;;
49458;SDS011;35354;51.296;16.924;2023-07-20T09:57:12;2.00;;;1.50;;
49458;SDS011;35354;51.296;16.924;2023-07-20T09:59:39;1.75;;;1.60;;
49458;SDS011;35354;51.296;16.924;2023-07-20T10:02:04;2.50;;;1.55;;
49458;SDS011;35354;51.296;16.924;2023-07-20T10:04:41;2.35;;;1.95;;
49458;SDS011;35354;51.296;16.924;2023-07-20T10:07:09;1.95;;;1.75;;
49458;SDS011;35354;51.296;16.924;2023-07-20T10:09:39;1.70;;;1.60;;
49458;SDS011;35354;51.296;16.924;2023-07-20T10:12:04;3.10;;;1.70;;
49458;SDS011;35354;51.296;16.924;2023-07-20T10:14:32;2.17;;;1.73;;
49458;SDS011;35354;51.296;16.924;2023-07-20T10:17:03;2.00;;;1.80;;
49458;SDS011;35354;51.296;16.924;2023-07-20T10:19:38;2.50;;;2.22;;
49458;SDS011;35354;51.296;16.924;2023-07-20T10:22:14;2.10;;;1.90;;
49458;SDS011;35354;51.296;16.924;2023-07-20T10:24:44;3.70;;;2.28;;
49458;SDS011;35354;51.296;16.924;2023-07-20T10:27:10;2.60;;;2.08;;
49458;SDS011;35354;51.296;16.924;2023-07-20T10:29:36;1.95;;;1.60;;
49458;SDS011;35354;51.296;16.924;2023-07-20T10:32:03;1.70;;;1.60;;
49458;SDS011;35354;51.296;16.924;2023-07-20T10:34:29;2.47;;;1.60;;
49458;SDS011;35354;51.296;16.924;2023-07-20T10:36:54;1.88;;;1.70;;
49458;SDS011;35354;51.296;16.924;2023-07-20T10:39:27;1.65;;;1.55;;
49458;SDS011;35354;51.296;16.924;2023-07-20T10:42:00;3.45;;;2.13;;
49458;SDS011;35354;51.296;16.924;2023-07-20T10:44:31;1.90;;;1.75;;
49458;SDS011;35354;51.296;16.924;2023-07-20T10:47:00;1.90;;;1.80;;
49458;SDS011;35354;51.296;16.924;2023-07-20T10:49:27;1.90;;;1.80;;
49458;SDS011;35354;51.296;16.924;2023-07-20T10:52:00;1.98;;;1.80;;
49458;SDS011;35354;51.296;16.924;2023-07-20T10:56:56;1.70;;;1.60;;
49458;SDS011;35354;51.296;16.924;2023-07-20T11:01:52;2.10;;;1.63;;
49458;SDS011;35354;51.296;16.924;2023-07-20T11:04:21;1.52;;;1.42;;
49458;SDS011;35354;51.296;16.924;2023-07-20T11:07:10;2.47;;;1.60;;
49458;SDS011;35354;51.296;16.924;2023-07-20T11:09:40;1.75;;;1.52;;
49458;SDS011;35354;51.296;16.924;2023-07-20T11:12:11;1.95;;;1.52;;
49458;SDS011;35354;51.296;16.924;2023-07-20T11:14:57;1.50;;;1.40;;
49458;SDS011;35354;51.296;16.924;2023-07-20T11:17:29;1.13;;;1.10;;
49458;SDS011;35354;51.296;16.924;2023-07-20T11:19:56;1.40;;;1.30;;
49458;SDS011;35354;51.296;16.924;2023-07-20T11:22:23;1.20;;;1.00;;
49458;SDS011;35354;51.296;16.924;2023-07-20T11:24:49;1.40;;;1.30;;
49458;SDS011;35354;51.296;16.924;2023-07-20T11:27:14;1.30;;;1.20;;
49458;SDS011;35354;51.296;16.924;2023-07-20T11:29:40;1.55;;;1.30;;
49458;SDS011;35354;51.296;16.924;2023-07-20T11:32:05;1.30;;;1.20;;
49458;SDS011;35354;51.296;16.924;2023-07-20T11:34:32;1.50;;;1.40;;
49458;SDS011;35354;51.296;16.924;2023-07-20T11:36:59;1.42;;;1.33;;
49458;SDS011;35354;51.296;16.924;2023-07-20T11:39:24;2.78;;;1.38;;
49458;SDS011;35354;51.296;16.924;2023-07-20T11:41:53;1.30;;;1.30;;
49458;SDS011;35354;51.296;16.924;2023-07-20T11:44:20;1.67;;;1.55;;
49458;SDS011;35354;51.296;16.924;2023-07-20T11:47:05;1.38;;;1.27;;
49458;SDS011;35354;51.296;16.924;2023-07-20T11:49:35;2.30;;;1.40;;
49458;SDS011;35354;51.296;16.924;2023-07-20T11:52:02;1.65;;;1.50;;
49458;SDS011;35354;51.296;16.924;2023-07-20T11:54:32;1.80;;;1.52;;
49458;SDS011;35354;51.296;16.924;2023-07-20T11:57:00;1.60;;;1.50;;
49458;SDS011;35354;51.296;16.924;2023-07-20T11:59:26;1.95;;;1.45;;
49458;SDS011;35354;51.296;16.924;2023-07-20T12:01:51;1.42;;;1.33;;
49458;SDS011;35354;51.296;16.924;2023-07-20T12:04:17;1.63;;;1.52;;
49458;SDS011;35354;51.296;16.924;2023-07-20T12:06:42;1.48;;;1.38;;
49458;SDS011;35354;51.296;16.924;2023-07-20T12:09:13;2.03;;;1.50;;
49458;SDS011;35354;51.296;16.924;2023-07-20T12:11:42;3.03;;;1.75;;
49458;SDS011;35354;51.296;16.924;2023-07-20T12:14:08;1.55;;;1.45;;
49458;SDS011;35354;51.296;16.924;2023-07-20T12:16:35;1.65;;;1.55;;
49458;SDS011;35354;51.296;16.924;2023-07-20T12:19:02;1.90;;;1.48;;
49458;SDS011;35354;51.296;16.924;2023-07-20T12:21:29;2.20;;;1.50;;
49458;SDS011;35354;51.296;16.924;2023-07-20T12:23:55;2.40;;;1.48;;
49458;SDS011;35354;51.296;16.924;2023-07-20T12:26:22;2.17;;;1.80;;
49458;SDS011;35354;51.296;16.924;2023-07-20T12:28:49;1.75;;;1.65;;
49458;SDS011;35354;51.296;16.924;2023-07-20T12:31:14;1.60;;;1.50;;
49458;SDS011;35354;51.296;16.924;2023-07-20T12:33:40;2.17;;;2.08;;
49458;SDS011;35354;51.296;16.924;2023-07-20T12:36:06;2.00;;;1.90;;
49458;SDS011;35354;51.296;16.924;2023-07-20T12:38:31;2.95;;;1.80;;
49458;SDS011;35354;51.296;16.924;2023-07-20T12:40:57;2.00;;;1.80;;
49458;SDS011;35354;51.296;16.924;2023-07-20T12:43:23;3.25;;;2.10;;
49458;SDS011;35354;51.296;16.924;2023-07-20T12:45:49;2.10;;;2.00;;
49458;SDS011;35354;51.296;16.924;2023-07-20T12:48:14;2.67;;;2.47;;
49458;SDS011;35354;51.296;16.924;2023-07-20T12:50:40;2.58;;;2.35;;
49458;SDS011;35354;51.296;16.924;2023-07-20T12:53:05;2.55;;;1.77;;
49458;SDS011;35354;51.296;16.924;2023-07-20T12:55:31;2.45;;;2.10;;
49458;SDS011;35354;51.296;16.924;2023-07-20T12:57:57;2.33;;;2.13;;
49458;SDS011;35354;51.296;16.924;2023-07-20T13:00:22;2.05;;;1.83;;
49458;SDS011;35354;51.296;16.924;2023-07-20T13:02:48;2.63;;;2.40;;
49458;SDS011;35354;51.296;16.924;2023-07-20T13:05:14;2.53;;;2.33;;
49458;SDS011;35354;51.296;16.924;2023-07-20T13:07:40;2.50;;;2.00;;
49458;SDS011;35354;51.296;16.924;2023-07-20T13:10:06;1.83;;;1.73;;
49458;SDS011;35354;51.296;16.924;2023-07-20T13:12:33;2.58;;;2.03;;
49458;SDS011;35354;51.296;16.924;2023-07-20T13:15:02;2.20;;;2.00;;
49458;SDS011;35354;51.296;16.924;2023-07-20T13:17:30;2.22;;;2.08;;
49458;SDS011;35354;51.296;16.924;2023-07-20T13:19:56;2.75;;;2.25;;
49458;SDS011;35354;51.296;16.924;2023-07-20T13:22:22;2.20;;;2.10;;
49458;SDS011;35354;51.296;16.924;2023-07-20T13:24:48;4.50;;;2.03;;
49458;SDS011;35354;51.296;16.924;2023-07-20T13:27:14;2.20;;;2.03;;
49458;SDS011;35354;51.296;16.924;2023-07-20T13:29:40;1.80;;;1.70;;
49458;SDS011;35354;51.296;16.924;2023-07-20T13:32:06;2.35;;;1.90;;
49458;SDS011;35354;51.296;16.924;2023-07-20T13:34:32;2.83;;;1.90;;
49458;SDS011;35354;51.296;16.924;2023-07-20T13:36:58;2.17;;;2.05;;
49458;SDS011;35354;51.296;16.924;2023-07-20T13:39:23;2.00;;;1.90;;
49458;SDS011;35354;51.296;16.924;2023-07-20T13:41:51;2.50;;;2.30;;
49458;SDS011;35354;51.296;16.924;2023-07-20T13:44:16;2.28;;;2.10;;
49458;SDS011;35354;51.296;16.924;2023-07-20T13:46:41;2.10;;;2.00;;
49458;SDS011;35354;51.296;16.924;2023-07-20T13:49:07;2.00;;;1.90;;
49458;SDS011;35354;51.296;16.924;2023-07-20T13:51:32;2.05;;;1.85;;
49458;SDS011;35354;51.296;16.924;2023-07-20T13:53:57;2.28;;;1.65;;
49458;SDS011;35354;51.296;16.924;2023-07-20T13:56:23;2.85;;;1.95;;
49458;SDS011;35354;51.296;16.924;2023-07-20T13:58:49;2.35;;;2.15;;
49458;SDS011;35354;51.296;16.924;2023-07-20T14:01:15;2.10;;;2.00;;
49458;SDS011;35354;51.296;16.924;2023-07-20T14:03:42;2.55;;;2.00;;
49458;SDS011;35354;51.296;16.924;2023-07-20T14:06:08;2.40;;;2.20;;
49458;SDS011;35354;51.296;16.924;2023-07-20T14:08:33;2.83;;;2.30;;
49458;SDS011;35354;51.296;16.924;2023-07-20T14:10:59;2.58;;;1.90;;
49458;SDS011;35354;51.296;16.924;2023-07-20T14:13:25;2.72;;;2.53;;
49458;SDS011;35354;51.296;16.924;2023-07-20T14:15:50;2.35;;;2.15;;
49458;SDS011;35354;51.296;16.924;2023-07-20T14:18:15;2.50;;;2.30;;
49458;SDS011;35354;51.296;16.924;2023-07-20T14:20:41;2.58;;;2.38;;
49458;SDS011;35354;51.296;16.924;2023-07-20T14:23:07;2.03;;;1.92;;
49458;SDS011;35354;51.296;16.924;2023-07-20T14:25:32;1.92;;;1.80;;
49458;SDS011;35354;51.296;16.924;2023-07-20T14:27:58;5.63;;;3.38;;
49458;SDS011;35354;51.296;16.924;2023-07-20T14:30:24;3.80;;;3.50;;
49458;SDS011;35354;51.296;16.924;2023-07-20T14:32:50;5.30;;;4.05;;
49458;SDS011;35354;51.296;16.924;2023-07-20T14:35:15;4.07;;;3.20;;
49458;SDS011;35354;51.296;16.924;2023-07-20T14:37:40;3.15;;;2.85;;
49458;SDS011;35354;51.296;16.924;2023-07-20T14:40:06;3.75;;;3.45;;
49458;SDS011;35354;51.296;16.924;2023-07-20T14:42:32;4.15;;;3.83;;
49458;SDS011;35354;51.296;16.924;2023-07-20T14:44:57;3.70;;;3.20;;
49458;SDS011;35354;51.296;16.924;2023-07-20T14:47:23;5.32;;;4.90;;